Time;durP1;ratioP1;P1;durP2;ratioP2;P2;SDS_P1;SDS_P2;PMS_P1;PMS_P2;Temp;Humidity;BMP_temperature;BMP_pressure;BME280_temperature;BME280_humidity;BME280_pressure;Samples;Min_cycle;Max_cycle;Signal;HPM_P1;HPM_P2
2023/08/24 00:02:03;;;;;;;0.20;0.10;;;;;;;;;;5029750;28;20124;-82
2023/08/24 00:04:29;;;;;;;0.20;0.10;;;;;;;;;;5013840;28;20592;-82
2023/08/24 00:06:55;;;;;;;0.20;0.10;;;;;;;;;;5034898;28;20200;-83
2023/08/24 00:09:21;;;;;;;0.20;0.00;;;;;;;;;;5029728;28;20083;-83
2023/08/24 00:11:47;;;;;;;0.20;0.08;;;;;;;;;;5032034;28;20505;-82
2023/08/24 00:14:13;;;;;;;0.20;0.00;;;;;;;;;;5014015;28;20045;-83
2023/08/24 00:16:40;;;;;;;0.20;0.10;;;;;;;;;;5007782;28;20162;-83
2023/08/24 00:19:06;;;;;;;0.20;0.10;;;;;;;;;;5012709;28;20136;-82
2023/08/24 00:21:32;;;;;;;0.30;0.20;;;;;;;;;;5026429;28;20036;-82
2023/08/24 00:23:59;;;;;;;0.20;0.10;;;;;;;;;;5013250;28;20087;-82
2023/08/24 00:26:25;;;;;;;0.20;0.10;;;;;;;;;;5032513;28;20356;-83
2023/08/24 00:28:51;;;;;;;0.30;0.10;;;;;;;;;;5024511;28;20418;-82
2023/08/24 00:31:18;;;;;;;0.20;0.10;;;;;;;;;;5011784;28;20048;-82
2023/08/24 00:33:44;;;;;;;0.20;0.00;;;;;;;;;;5012388;28;20505;-82
2023/08/24 00:36:10;;;;;;;0.20;0.00;;;;;;;;;;5033348;28;20040;-82
2023/08/24 00:38:36;;;;;;;0.30;0.10;;;;;;;;;;5015218;28;20120;-82
2023/08/24 00:41:03;;;;;;;0.20;0.10;;;;;;;;;;5012030;28;20061;-82
2023/08/24 00:43:29;;;;;;;0.20;0.10;;;;;;;;;;5034681;28;20045;-83
2023/08/24 00:46:00;;;;;;;0.20;0.00;;;;;;;;;;5007053;28;20204;-83
2023/08/24 00:48:28;;;;;;;0.20;0.10;;;;;;;;;;5015165;28;20037;-82
2023/08/24 00:50:54;;;;;;;0.20;0.20;;;;;;;;;;5011607;28;20082;-82
2023/08/24 00:53:21;;;;;;;0.20;0.00;;;;;;;;;;5033668;28;20116;-82
2023/08/24 00:55:47;;;;;;;0.73;0.20;;;;;;;;;;5032854;28;20533;-82
2023/08/24 00:58:14;;;;;;;0.20;0.00;;;;;;;;;;5016351;28;20666;-83
2023/08/24 01:00:40;;;;;;;0.20;0.10;;;;;;;;;;5031178;28;20037;-82
2023/08/24 01:03:06;;;;;;;0.30;0.20;;;;;;;;;;5006320;28;20037;-82
2023/08/24 01:05:32;;;;;;;0.20;0.10;;;;;;;;;;5037774;28;20113;-82
2023/08/24 01:07:58;;;;;;;0.20;0.10;;;;;;;;;;5013112;28;20076;-82
2023/08/24 01:10:25;;;;;;;0.20;0.00;;;;;;;;;;5036756;28;20040;-82
2023/08/24 01:12:58;;;;;;;0.28;0.10;;;;;;;;;;5034618;28;20138;-82
2023/08/24 01:15:24;;;;;;;0.20;0.10;;;;;;;;;;5032937;28;20357;-82
2023/08/24 01:17:50;;;;;;;0.20;0.10;;;;;;;;;;5034604;28;20036;-83
2023/08/24 01:20:18;;;;;;;0.20;0.10;;;;;;;;;;5018982;28;20045;-82
2023/08/24 01:22:56;;;;;;;0.20;0.10;;;;;;;;;;5030656;28;20478;-82
2023/08/24 01:25:41;;;;;;;0.20;0.10;;;;;;;;;;5033645;28;20037;-82
2023/08/24 01:28:07;;;;;;;0.40;0.28;;;;;;;;;;5012859;28;20425;-82
2023/08/24 01:30:35;;;;;;;0.20;0.10;;;;;;;;;;5016462;28;20171;-83
2023/08/24 01:33:04;;;;;;;0.20;0.10;;;;;;;;;;5012815;28;20045;-83
2023/08/24 01:35:30;;;;;;;0.20;0.10;;;;;;;;;;5029481;28;20072;-83
2023/08/24 01:37:57;;;;;;;0.20;0.20;;;;;;;;;;5016395;28;20167;-83
2023/08/24 01:40:34;;;;;;;0.20;0.10;;;;;;;;;;5034415;28;20056;-82
2023/08/24 01:43:03;;;;;;;0.20;0.10;;;;;;;;;;5031058;28;20057;-82
2023/08/24 01:45:30;;;;;;;0.20;0.10;;;;;;;;;;5018519;28;20521;-82
2023/08/24 01:47:57;;;;;;;0.20;0.10;;;;;;;;;;5035696;28;20444;-83
2023/08/24 01:50:23;;;;;;;0.20;0.10;;;;;;;;;;5007739;28;20090;-83
2023/08/24 01:52:50;;;;;;;0.35;0.30;;;;;;;;;;5025026;28;20040;-84
2023/08/24 01:55:19;;;;;;;0.20;0.10;;;;;;;;;;5033793;28;20704;-83
2023/08/24 01:57:45;;;;;;;0.20;0.10;;;;;;;;;;5018253;28;20037;-83
2023/08/24 02:00:12;;;;;;;0.20;0.15;;;;;;;;;;5026709;28;20063;-84
2023/08/24 02:02:38;;;;;;;0.20;0.10;;;;;;;;;;5030551;28;20061;-82
2023/08/24 02:05:04;;;;;;;0.25;0.10;;;;;;;;;;5033465;28;20041;-83
2023/08/24 02:07:30;;;;;;;0.20;0.10;;;;;;;;;;5017130;28;20112;-83
2023/08/24 02:09:57;;;;;;;0.30;0.20;;;;;;;;;;5034101;28;20128;-82
2023/08/24 02:12:23;;;;;;;0.43;0.30;;;;;;;;;;5032976;23;20040;-79
2023/08/24 02:14:49;;;;;;;0.20;0.10;;;;;;;;;;5034447;28;20044;-78
2023/08/24 02:17:15;;;;;;;0.20;0.10;;;;;;;;;;5054929;28;20036;-79
2023/08/24 02:19:41;;;;;;;0.20;0.00;;;;;;;;;;5054053;28;20517;-78
2023/08/24 02:22:07;;;;;;;0.30;0.17;;;;;;;;;;5053964;28;20050;-78
2023/08/24 02:24:33;;;;;;;0.20;0.20;;;;;;;;;;5047333;28;20296;-77
2023/08/24 02:26:59;;;;;;;0.20;0.10;;;;;;;;;;5037059;28;20036;-78
2023/08/24 02:29:26;;;;;;;0.43;0.17;;;;;;;;;;5041503;28;20046;-78
2023/08/24 02:31:52;;;;;;;0.20;0.10;;;;;;;;;;5049246;28;20700;-78
2023/08/24 02:34:18;;;;;;;0.65;0.40;;;;;;;;;;5051115;28;20514;-78
2023/08/24 02:36:44;;;;;;;0.20;0.10;;;;;;;;;;5054829;28;20420;-78
2023/08/24 02:39:11;;;;;;;0.20;0.10;;;;;;;;;;5044014;28;20167;-79
2023/08/24 02:41:37;;;;;;;0.20;0.10;;;;;;;;;;5033565;28;20124;-78
2023/08/24 02:44:03;;;;;;;0.20;0.10;;;;;;;;;;5039543;28;20041;-78
2023/08/24 02:46:29;;;;;;;0.20;0.10;;;;;;;;;;5036744;28;20079;-78
2023/08/24 02:48:55;;;;;;;0.20;0.10;;;;;;;;;;5041343;28;20119;-77
2023/08/24 02:51:22;;;;;;;0.30;0.20;;;;;;;;;;5050219;28;20427;-77
2023/08/24 02:53:49;;;;;;;0.73;0.32;;;;;;;;;;5055692;28;20062;-77
2023/08/24 02:56:15;;;;;;;0.50;0.40;;;;;;;;;;5035127;28;20050;-78
2023/08/24 02:58:41;;;;;;;0.20;0.10;;;;;;;;;;5050109;28;20096;-78
2023/08/24 03:01:07;;;;;;;0.20;0.05;;;;;;;;;;5052796;28;20036;-78
2023/08/24 03:03:34;;;;;;;0.82;0.20;;;;;;;;;;5051114;28;20678;-78
2023/08/24 03:06:01;;;;;;;0.20;0.10;;;;;;;;;;5046166;28;20054;-78
2023/08/24 03:08:27;;;;;;;0.20;0.15;;;;;;;;;;5053330;28;20064;-78
2023/08/24 03:10:54;;;;;;;0.20;0.10;;;;;;;;;;5048116;28;20088;-78
2023/08/24 03:13:20;;;;;;;0.30;0.20;;;;;;;;;;5042915;28;20036;-78
2023/08/24 03:15:46;;;;;;;0.20;0.17;;;;;;;;;;5036330;28;20031;-78
2023/08/24 03:18:12;;;;;;;0.50;0.28;;;;;;;;;;5047569;28;20067;-78
2023/08/24 03:20:39;;;;;;;0.22;0.20;;;;;;;;;;5039220;28;20047;-79
2023/08/24 03:23:05;;;;;;;0.20;0.10;;;;;;;;;;5058424;28;20032;-78
2023/08/24 03:25:32;;;;;;;0.20;0.10;;;;;;;;;;5049288;28;20066;-78
2023/08/24 03:27:58;;;;;;;0.20;0.15;;;;;;;;;;5044101;28;20331;-78
2023/08/24 03:30:24;;;;;;;0.20;0.10;;;;;;;;;;5047253;28;20036;-78
2023/08/24 03:32:50;;;;;;;0.20;0.10;;;;;;;;;;5050120;28;20108;-78
2023/08/24 03:35:16;;;;;;;0.20;0.17;;;;;;;;;;5044551;28;20071;-78
2023/08/24 03:37:42;;;;;;;0.20;0.10;;;;;;;;;;5051148;28;20110;-78
2023/08/24 03:40:08;;;;;;;0.20;0.00;;;;;;;;;;5028165;28;20474;-78
2023/08/24 03:42:34;;;;;;;0.20;0.10;;;;;;;;;;5047105;28;20127;-79
2023/08/24 03:45:00;;;;;;;0.20;0.10;;;;;;;;;;5039817;28;21759;-78
2023/08/24 03:47:26;;;;;;;0.20;0.10;;;;;;;;;;5035390;28;20287;-78
2023/08/24 03:49:52;;;;;;;0.20;0.10;;;;;;;;;;5034561;28;20113;-78
2023/08/24 03:52:19;;;;;;;0.65;0.35;;;;;;;;;;5045792;28;20416;-77
2023/08/24 03:54:45;;;;;;;0.20;0.17;;;;;;;;;;5036053;28;20165;-78
2023/08/24 03:57:11;;;;;;;0.50;0.22;;;;;;;;;;5049893;28;20130;-78
2023/08/24 03:59:37;;;;;;;0.20;0.10;;;;;;;;;;5033136;28;20762;-78
2023/08/24 04:02:03;;;;;;;0.40;0.10;;;;;;;;;;5044004;28;20089;-78
2023/08/24 04:04:30;;;;;;;0.30;0.17;;;;;;;;;;5036529;28;20052;-78
2023/08/24 04:06:56;;;;;;;0.20;0.00;;;;;;;;;;5050607;28;20040;-78
2023/08/24 04:09:22;;;;;;;0.20;0.10;;;;;;;;;;5039856;28;20374;-78
2023/08/24 04:11:48;;;;;;;0.20;0.10;;;;;;;;;;5035727;28;20075;-78
2023/08/24 04:14:14;;;;;;;0.20;0.10;;;;;;;;;;5050871;28;20458;-78
2023/08/24 04:16:41;;;;;;;0.20;0.10;;;;;;;;;;5055255;28;20088;-78
2023/08/24 04:19:08;;;;;;;0.30;0.28;;;;;;;;;;5051848;28;20086;-78
2023/08/24 04:21:34;;;;;;;0.20;0.10;;;;;;;;;;5048848;28;20044;-77
2023/08/24 04:24:00;;;;;;;0.20;0.10;;;;;;;;;;5040853;28;20408;-79
2023/08/24 04:26:26;;;;;;;0.68;0.38;;;;;;;;;;5043185;28;20032;-78
2023/08/24 04:28:52;;;;;;;0.22;0.20;;;;;;;;;;5035613;28;20043;-78
2023/08/24 04:31:18;;;;;;;0.20;0.10;;;;;;;;;;5046301;28;20044;-78
2023/08/24 04:33:44;;;;;;;0.20;0.13;;;;;;;;;;5048232;28;20028;-77
2023/08/24 04:36:10;;;;;;;0.20;0.10;;;;;;;;;;5025627;28;20432;-78
2023/08/24 04:38:36;;;;;;;0.57;0.20;;;;;;;;;;5039225;28;20056;-78
2023/08/24 04:41:07;;;;;;;0.65;0.20;;;;;;;;;;5040548;28;20040;-78
2023/08/24 04:43:33;;;;;;;0.77;0.60;;;;;;;;;;5045689;28;20040;-77
2023/08/24 04:45:59;;;;;;;0.20;0.10;;;;;;;;;;5050961;28;20509;-77
2023/08/24 04:48:26;;;;;;;0.30;0.20;;;;;;;;;;5052794;28;20040;-77
2023/08/24 04:50:53;;;;;;;0.20;0.20;;;;;;;;;;5038441;28;20067;-78
2023/08/24 04:53:20;;;;;;;0.20;0.10;;;;;;;;;;5047201;28;20040;-78
2023/08/24 04:55:47;;;;;;;0.20;0.20;;;;;;;;;;5057803;28;20037;-78
2023/08/24 04:58:13;;;;;;;0.28;0.20;;;;;;;;;;5055703;28;20041;-78
2023/08/24 05:00:39;;;;;;;0.20;0.10;;;;;;;;;;5081100;28;20566;-79
2023/08/24 05:03:06;;;;;;;0.20;0.10;;;;;;;;;;5040878;28;20028;-78
2023/08/24 05:05:32;;;;;;;0.20;0.10;;;;;;;;;;5048644;28;20081;-78
2023/08/24 05:07:59;;;;;;;0.20;0.10;;;;;;;;;;5056662;28;20072;-78
2023/08/24 05:10:25;;;;;;;0.20;0.10;;;;;;;;;;5039167;28;20535;-77
2023/08/24 05:12:51;;;;;;;0.20;0.10;;;;;;;;;;5056293;28;20037;-77
2023/08/24 05:15:17;;;;;;;0.30;0.15;;;;;;;;;;5031206;28;20520;-78
2023/08/24 05:17:44;;;;;;;0.20;0.10;;;;;;;;;;5049100;28;20043;-78
2023/08/24 05:20:13;;;;;;;0.28;0.17;;;;;;;;;;5041976;28;20044;-78
2023/08/24 05:22:39;;;;;;;0.20;0.10;;;;;;;;;;5053026;28;20036;-78
2023/08/24 05:25:06;;;;;;;0.20;0.10;;;;;;;;;;5047280;28;20047;-78
2023/08/24 05:27:32;;;;;;;0.20;0.10;;;;;;;;;;5044858;28;20043;-78
2023/08/24 05:29:58;;;;;;;0.30;0.20;;;;;;;;;;5053062;28;20036;-78
2023/08/24 05:32:24;;;;;;;0.20;0.10;;;;;;;;;;5037913;28;20044;-78
2023/08/24 05:34:50;;;;;;;0.20;0.10;;;;;;;;;;5051918;28;20497;-79
2023/08/24 05:37:16;;;;;;;0.65;0.32;;;;;;;;;;5053588;28;20036;-79
2023/08/24 05:39:43;;;;;;;0.20;0.10;;;;;;;;;;5054586;28;20044;-78
2023/08/24 05:42:09;;;;;;;0.20;0.03;;;;;;;;;;5044208;28;20047;-79
2023/08/24 05:44:35;;;;;;;0.20;0.00;;;;;;;;;;5048645;28;20051;-78
2023/08/24 05:47:01;;;;;;;0.20;0.10;;;;;;;;;;5046476;28;20032;-79
2023/08/24 05:49:28;;;;;;;0.20;0.17;;;;;;;;;;5060288;28;20040;-78
2023/08/24 05:51:54;;;;;;;0.47;0.40;;;;;;;;;;5036918;28;20430;-79
2023/08/24 05:54:20;;;;;;;0.20;0.20;;;;;;;;;;5042658;28;20044;-78
2023/08/24 05:56:46;;;;;;;0.20;0.10;;;;;;;;;;5047113;28;20459;-80
2023/08/24 05:59:12;;;;;;;0.50;0.30;;;;;;;;;;5055779;28;20083;-79
2023/08/24 06:01:39;;;;;;;0.43;0.20;;;;;;;;;;5041980;28;20037;-78
2023/08/24 06:04:05;;;;;;;0.20;0.00;;;;;;;;;;5053150;28;20123;-82
2023/08/24 06:06:31;;;;;;;0.20;0.10;;;;;;;;;;5044926;28;20119;-79
2023/08/24 06:08:57;;;;;;;0.30;0.22;;;;;;;;;;5061247;28;20543;-79
2023/08/24 06:11:23;;;;;;;0.20;0.17;;;;;;;;;;5055837;28;20072;-79
2023/08/24 06:13:52;;;;;;;0.20;0.10;;;;;;;;;;5055986;28;20098;-79
2023/08/24 06:16:18;;;;;;;0.20;0.10;;;;;;;;;;5055649;28;20032;-79
2023/08/24 06:18:44;;;;;;;0.20;0.10;;;;;;;;;;5044469;28;20036;-78
2023/08/24 06:21:10;;;;;;;0.20;0.10;;;;;;;;;;5062093;28;20093;-78
2023/08/24 06:23:36;;;;;;;1.38;0.25;;;;;;;;;;5039450;28;20264;-79
2023/08/24 06:26:02;;;;;;;1.65;0.95;;;;;;;;;;5043857;28;20028;-80
2023/08/24 06:28:28;;;;;;;0.20;0.10;;;;;;;;;;5044539;28;20040;-79
2023/08/24 06:30:55;;;;;;;0.20;0.10;;;;;;;;;;5053029;28;20044;-79
2023/08/24 06:33:21;;;;;;;0.20;0.10;;;;;;;;;;5053938;28;20123;-81
2023/08/24 06:35:47;;;;;;;0.20;0.10;;;;;;;;;;5056714;28;20074;-78
2023/08/24 06:38:13;;;;;;;0.25;0.20;;;;;;;;;;5052629;28;20051;-79
2023/08/24 06:40:40;;;;;;;0.20;0.10;;;;;;;;;;5053126;28;20526;-80
2023/08/24 06:43:06;;;;;;;0.20;0.10;;;;;;;;;;5044540;28;20044;-79
2023/08/24 06:45:32;;;;;;;0.20;0.10;;;;;;;;;;5051433;28;20640;-81
2023/08/24 06:47:58;;;;;;;0.20;0.10;;;;;;;;;;5039875;28;20043;-79
2023/08/24 06:50:24;;;;;;;0.20;0.00;;;;;;;;;;5043455;28;20040;-79
2023/08/24 06:52:50;;;;;;;0.20;0.10;;;;;;;;;;5055709;28;20044;-80
2023/08/24 06:55:16;;;;;;;0.30;0.17;;;;;;;;;;5044369;28;20062;-79
2023/08/24 06:57:42;;;;;;;0.20;0.10;;;;;;;;;;5052587;28;20083;-79
2023/08/24 07:00:09;;;;;;;0.45;0.20;;;;;;;;;;5047944;28;20085;-79
2023/08/24 07:02:36;;;;;;;0.25;0.20;;;;;;;;;;5053255;28;20044;-79
2023/08/24 07:05:04;;;;;;;0.25;0.10;;;;;;;;;;5050246;28;20073;-80
2023/08/24 07:07:30;;;;;;;0.20;0.10;;;;;;;;;;5057565;28;20037;-82
2023/08/24 07:09:57;;;;;;;0.20;0.10;;;;;;;;;;5044308;28;20043;-79
2023/08/24 07:12:23;;;;;;;0.30;0.30;;;;;;;;;;5046773;28;20052;-79
2023/08/24 07:14:49;;;;;;;0.40;0.30;;;;;;;;;;5057267;28;20656;-79
2023/08/24 07:17:15;;;;;;;0.20;0.10;;;;;;;;;;5058165;28;20051;-79
2023/08/24 07:19:41;;;;;;;0.20;0.10;;;;;;;;;;5045647;28;20051;-79
2023/08/24 07:22:08;;;;;;;0.25;0.15;;;;;;;;;;5043516;28;21033;-79
2023/08/24 07:24:35;;;;;;;0.20;0.13;;;;;;;;;;5053766;28;20044;-79
2023/08/24 07:27:03;;;;;;;0.20;0.10;;;;;;;;;;5047671;28;20097;-79
2023/08/24 07:29:29;;;;;;;0.20;0.10;;;;;;;;;;5048472;28;20727;-79
2023/08/24 07:31:55;;;;;;;0.20;0.10;;;;;;;;;;5057663;28;20108;-81
2023/08/24 07:34:22;;;;;;;0.20;0.20;;;;;;;;;;5040740;28;20101;-78
2023/08/24 07:36:48;;;;;;;0.20;0.10;;;;;;;;;;5042278;28;20500;-79
2023/08/24 07:39:15;;;;;;;0.20;0.20;;;;;;;;;;5043115;28;20549;-80
2023/08/24 07:41:41;;;;;;;0.20;0.10;;;;;;;;;;5042892;28;20059;-79
2023/08/24 07:44:07;;;;;;;0.20;0.10;;;;;;;;;;5053157;28;20044;-80
2023/08/24 07:46:33;;;;;;;0.20;0.15;;;;;;;;;;5040340;28;20115;-80
2023/08/24 07:48:59;;;;;;;0.20;0.10;;;;;;;;;;5058690;28;20046;-80
2023/08/24 07:51:26;;;;;;;0.20;0.10;;;;;;;;;;5035564;28;20051;-79
2023/08/24 07:53:52;;;;;;;2.75;0.17;;;;;;;;;;5049793;28;20431;-80
2023/08/24 07:56:19;;;;;;;1.13;0.17;;;;;;;;;;5056769;28;20037;-80
2023/08/24 07:58:45;;;;;;;0.30;0.22;;;;;;;;;;5044243;28;20048;-80
2023/08/24 08:01:12;;;;;;;0.30;0.20;;;;;;;;;;5044626;28;20039;-82
2023/08/24 08:03:38;;;;;;;0.70;0.30;;;;;;;;;;5041521;28;20040;-81
2023/08/24 08:06:04;;;;;;;0.25;0.10;;;;;;;;;;5046375;28;20041;-79
2023/08/24 08:08:30;;;;;;;0.20;0.10;;;;;;;;;;5057040;28;20140;-80
2023/08/24 08:11:00;;;;;;;0.20;0.10;;;;;;;;;;5062704;28;20058;-79
2023/08/24 08:13:27;;;;;;;0.20;0.05;;;;;;;;;;5056313;23;20061;-83
2023/08/24 08:15:53;;;;;;;0.52;0.30;;;;;;;;;;5036361;28;20041;-84
2023/08/24 08:18:19;;;;;;;0.20;0.10;;;;;;;;;;5043437;28;20093;-83
2023/08/24 08:20:45;;;;;;;0.68;0.30;;;;;;;;;;5024222;28;20190;-83
2023/08/24 08:23:11;;;;;;;0.30;0.20;;;;;;;;;;5034351;28;20032;-85
2023/08/24 08:25:37;;;;;;;0.20;0.10;;;;;;;;;;5022319;28;20045;-84
2023/08/24 08:28:04;;;;;;;0.40;0.40;;;;;;;;;;5027972;28;20067;-83
2023/08/24 08:30:30;;;;;;;0.30;0.20;;;;;;;;;;5025234;28;20396;-83
2023/08/24 08:32:56;;;;;;;0.20;0.10;;;;;;;;;;5021228;28;20497;-83
2023/08/24 08:35:22;;;;;;;0.22;0.20;;;;;;;;;;5038005;28;20182;-83
2023/08/24 08:37:50;;;;;;;0.63;0.38;;;;;;;;;;5016986;28;20071;-83
2023/08/24 08:40:16;;;;;;;0.20;0.10;;;;;;;;;;5032364;28;20595;-83
2023/08/24 08:42:42;;;;;;;0.20;0.13;;;;;;;;;;5019813;28;20407;-81
2023/08/24 08:45:12;;;;;;;0.20;0.00;;;;;;;;;;5026347;28;20172;-81
2023/08/24 08:47:40;;;;;;;0.20;0.10;;;;;;;;;;5041594;28;20036;-81
2023/08/24 08:50:07;;;;;;;0.20;0.10;;;;;;;;;;5026973;28;20036;-81
2023/08/24 08:52:33;;;;;;;0.20;0.10;;;;;;;;;;5037734;28;20040;-81
2023/08/24 08:55:00;;;;;;;0.22;0.13;;;;;;;;;;5038482;28;20036;-81
2023/08/24 08:57:26;;;;;;;0.20;0.10;;;;;;;;;;5040781;28;20041;-81
2023/08/24 08:59:53;;;;;;;0.20;0.10;;;;;;;;;;5031660;28;20134;-80
2023/08/24 09:02:24;;;;;;;0.40;0.20;;;;;;;;;;5021188;28;20089;-83
2023/08/24 09:04:51;;;;;;;0.40;0.20;;;;;;;;;;5046032;28;20052;-81
2023/08/24 09:07:17;;;;;;;0.20;0.10;;;;;;;;;;5023497;28;20409;-81
2023/08/24 09:09:44;;;;;;;0.20;0.10;;;;;;;;;;5029908;28;20033;-81
2023/08/24 09:12:10;;;;;;;0.20;0.10;;;;;;;;;;5014121;28;20045;-85
2023/08/24 09:14:36;;;;;;;0.20;0.10;;;;;;;;;;5029296;28;20075;-83
2023/08/24 09:17:03;;;;;;;0.20;0.17;;;;;;;;;;5019410;28;20041;-83
2023/08/24 09:19:35;;;;;;;0.20;0.10;;;;;;;;;;5022679;28;20901;-81
2023/08/24 09:22:02;;;;;;;0.20;0.10;;;;;;;;;;5014796;28;20033;-80
2023/08/24 09:24:34;;;;;;;0.20;0.10;;;;;;;;;;5024762;28;20040;-84
2023/08/24 09:27:05;;;;;;;1.75;0.30;;;;;;;;;;5036636;28;20465;-83
2023/08/24 09:29:37;;;;;;;0.28;0.22;;;;;;;;;;5021512;28;20037;-83
2023/08/24 09:32:03;;;;;;;0.30;0.10;;;;;;;;;;5019838;28;20451;-83
2023/08/24 09:34:30;;;;;;;0.20;0.10;;;;;;;;;;5025705;28;20480;-83
2023/08/24 09:36:56;;;;;;;0.20;0.10;;;;;;;;;;5020399;28;20045;-82
2023/08/24 09:39:22;;;;;;;0.20;0.10;;;;;;;;;;5036292;28;20041;-82
2023/08/24 09:41:50;;;;;;;0.20;0.10;;;;;;;;;;5033073;28;20509;-82
2023/08/24 09:44:17;;;;;;;0.20;0.20;;;;;;;;;;5034733;28;20041;-82
2023/08/24 09:46:43;;;;;;;0.20;0.10;;;;;;;;;;5026486;28;20044;-82
2023/08/24 09:49:11;;;;;;;0.20;0.13;;;;;;;;;;5033479;28;20120;-82
2023/08/24 09:51:38;;;;;;;0.28;0.20;;;;;;;;;;5022262;28;20597;-83
2023/08/24 09:54:09;;;;;;;0.32;0.17;;;;;;;;;;5029776;28;20051;-82
2023/08/24 09:56:37;;;;;;;0.20;0.00;;;;;;;;;;5030098;28;20089;-82
2023/08/24 09:59:21;;;;;;;0.20;0.10;;;;;;;;;;5027201;28;20482;-83
2023/08/24 10:01:48;;;;;;;0.20;0.10;;;;;;;;;;5013803;28;20598;-82
2023/08/24 10:04:37;;;;;;;0.28;0.20;;;;;;;;;;5037938;28;20125;-83
2023/08/24 10:07:07;;;;;;;0.20;0.10;;;;;;;;;;5055522;28;20056;-82
2023/08/24 10:09:41;;;;;;;0.20;0.10;;;;;;;;;;5013052;28;20099;-83
2023/08/24 10:12:09;;;;;;;0.30;0.20;;;;;;;;;;5033038;28;20171;-82
2023/08/24 10:14:48;;;;;;;0.20;0.20;;;;;;;;;;5037067;28;20101;-82
2023/08/24 10:17:14;;;;;;;0.20;0.10;;;;;;;;;;5027975;28;20045;-82
2023/08/24 10:19:41;;;;;;;0.20;0.10;;;;;;;;;;5029215;28;20153;-82
2023/08/24 10:22:08;;;;;;;0.40;0.20;;;;;;;;;;5026053;28;20031;-82
2023/08/24 10:24:35;;;;;;;0.50;0.28;;;;;;;;;;5052308;28;20151;-82
2023/08/24 10:27:03;;;;;;;0.20;0.17;;;;;;;;;;5031277;28;20566;-82
2023/08/24 10:29:29;;;;;;;0.30;0.30;;;;;;;;;;5026199;28;20045;-82
2023/08/24 10:31:57;;;;;;;0.30;0.20;;;;;;;;;;5041379;28;20048;-82
2023/08/24 10:34:25;;;;;;;0.40;0.20;;;;;;;;;;5022733;28;20063;-82
2023/08/24 10:36:52;;;;;;;0.20;0.10;;;;;;;;;;5017725;28;20052;-81
2023/08/24 10:39:20;;;;;;;1.00;0.35;;;;;;;;;;5030998;28;20045;-81
2023/08/24 10:41:52;;;;;;;0.50;0.30;;;;;;;;;;5023197;28;20408;-81
2023/08/24 10:44:35;;;;;;;0.20;0.10;;;;;;;;;;5037216;28;20052;-82
2023/08/24 10:47:07;;;;;;;0.20;0.10;;;;;;;;;;5034647;28;20048;-82
2023/08/24 10:49:33;;;;;;;;;;;;;;;;;;5037815;28;20394;-82
2023/08/24 10:52:17;;;;;;;0.20;0.10;;;;;;;;;;5037369;28;20134;-81
2023/08/24 10:54:45;;;;;;;0.20;0.10;;;;;;;;;;5027986;28;20123;-82
2023/08/24 10:57:19;;;;;;;0.35;0.17;;;;;;;;;;5029730;28;20042;-84
2023/08/24 10:59:45;;;;;;;0.20;0.17;;;;;;;;;;5028309;28;20448;-83
2023/08/24 11:02:19;;;;;;;0.50;0.28;;;;;;;;;;5019263;28;20485;-83
2023/08/24 11:05:05;;;;;;;0.43;0.20;;;;;;;;;;5022840;28;20213;-81
2023/08/24 11:07:31;;;;;;;0.38;0.20;;;;;;;;;;5025427;28;20041;-82
2023/08/24 11:09:57;;;;;;;0.28;0.20;;;;;;;;;;5035777;28;20115;-82
2023/08/24 11:12:27;;;;;;;0.30;0.20;;;;;;;;;;5019911;28;20044;-81
2023/08/24 11:15:01;;;;;;;0.40;0.30;;;;;;;;;;5013273;28;20524;-82
2023/08/24 11:17:33;;;;;;;0.20;0.17;;;;;;;;;;5020163;28;20308;-82
2023/08/24 11:19:59;;;;;;;0.75;0.40;;;;;;;;;;5029584;28;20394;-82
2023/08/24 11:22:26;;;;;;;0.20;0.10;;;;;;;;;;5036538;28;20040;-83
2023/08/24 11:24:52;;;;;;;0.20;0.10;;;;;;;;;;5013300;28;20039;-82
2023/08/24 11:27:18;;;;;;;0.30;0.20;;;;;;;;;;5030605;28;20132;-85
2023/08/24 11:29:44;;;;;;;0.30;0.15;;;;;;;;;;5019827;28;20040;-83
2023/08/24 11:32:10;;;;;;;0.20;0.17;;;;;;;;;;5031506;28;20090;-82
2023/08/24 11:34:37;;;;;;;0.30;0.28;;;;;;;;;;5026061;28;20045;-82
2023/08/24 11:37:03;;;;;;;0.30;0.20;;;;;;;;;;5021428;28;20053;-82
2023/08/24 11:39:32;;;;;;;0.20;0.10;;;;;;;;;;5021610;28;20122;-82
2023/08/24 11:41:59;;;;;;;0.30;0.10;;;;;;;;;;5017170;28;20036;-81
2023/08/24 11:44:26;;;;;;;0.20;0.13;;;;;;;;;;5030159;28;20041;-82
2023/08/24 11:46:52;;;;;;;0.65;0.20;;;;;;;;;;5013625;28;20133;-83
2023/08/24 11:49:18;;;;;;;0.40;0.17;;;;;;;;;;5017698;28;20222;-82
2023/08/24 11:51:44;;;;;;;0.20;0.20;;;;;;;;;;5015947;28;20515;-83
2023/08/24 11:54:10;;;;;;;0.22;0.17;;;;;;;;;;5020373;28;20165;-83
2023/08/24 11:56:42;;;;;;;0.40;0.30;;;;;;;;;;5030907;28;20080;-82
2023/08/24 11:59:12;;;;;;;0.30;0.30;;;;;;;;;;5019693;28;20044;-82
2023/08/24 12:01:39;;;;;;;0.22;0.20;;;;;;;;;;5034855;28;20141;-83
2023/08/24 12:04:06;;;;;;;0.30;0.20;;;;;;;;;;5029064;28;20064;-83
2023/08/24 12:06:32;;;;;;;0.85;0.10;;;;;;;;;;5019590;28;20036;-83
2023/08/24 12:08:58;;;;;;;0.20;0.20;;;;;;;;;;5039208;28;20044;-82
2023/08/24 12:11:26;;;;;;;0.20;0.17;;;;;;;;;;5027468;28;20049;-83
2023/08/24 12:13:53;;;;;;;0.20;0.10;;;;;;;;;;5029536;28;20041;-83
2023/08/24 12:16:23;;;;;;;0.30;0.20;;;;;;;;;;5027259;28;20854;-83
2023/08/24 12:18:53;;;;;;;0.20;0.10;;;;;;;;;;5032646;28;20036;-82
2023/08/24 12:21:23;;;;;;;0.22;0.22;;;;;;;;;;5013851;28;20036;-82
2023/08/24 12:24:09;;;;;;;0.30;0.17;;;;;;;;;;5020460;28;20532;-83
2023/08/24 12:26:35;;;;;;;0.30;0.20;;;;;;;;;;5016842;28;20032;-83
2023/08/24 12:29:09;;;;;;;0.20;0.10;;;;;;;;;;5018828;28;20060;-83
2023/08/24 12:31:35;;;;;;;2.05;0.20;;;;;;;;;;5016223;28;20053;-82
2023/08/24 12:34:08;;;;;;;0.20;0.15;;;;;;;;;;5017696;28;20093;-82
2023/08/24 12:36:36;;;;;;;0.20;0.10;;;;;;;;;;5019738;28;20047;-83
2023/08/24 12:39:06;;;;;;;0.20;0.20;;;;;;;;;;5031893;28;20573;-83
2023/08/24 12:41:33;;;;;;;0.20;0.10;;;;;;;;;;5029843;28;20044;-83
2023/08/24 12:43:59;;;;;;;0.30;0.17;;;;;;;;;;5018072;28;20045;-82
2023/08/24 12:46:27;;;;;;;0.20;0.10;;;;;;;;;;5033322;28;20044;-82
2023/08/24 12:48:53;;;;;;;0.20;0.10;;;;;;;;;;5026115;28;20045;-82
2023/08/24 12:51:19;;;;;;;0.20;0.20;;;;;;;;;;5034278;28;20778;-82
2023/08/24 12:53:45;;;;;;;0.20;0.10;;;;;;;;;;5018135;28;20036;-82
2023/08/24 12:56:11;;;;;;;0.35;0.35;;;;;;;;;;5017827;28;20229;-83
2023/08/24 12:58:37;;;;;;;0.20;0.10;;;;;;;;;;5016191;28;20048;-82
2023/08/24 13:01:03;;;;;;;0.93;0.30;;;;;;;;;;5030887;28;20083;-82
2023/08/24 13:03:29;;;;;;;0.55;0.30;;;;;;;;;;5020634;28;20091;-83
2023/08/24 13:05:55;;;;;;;0.20;0.20;;;;;;;;;;5022383;28;20036;-82
2023/08/24 13:08:21;;;;;;;0.20;0.10;;;;;;;;;;5031553;28;20044;-83
2023/08/24 13:10:47;;;;;;;0.20;0.10;;;;;;;;;;5030960;28;20045;-83
2023/08/24 13:13:13;;;;;;;0.20;0.10;;;;;;;;;;5017790;28;20041;-84
2023/08/24 13:15:39;;;;;;;0.20;0.20;;;;;;;;;;5023388;28;20145;-82
2023/08/24 13:18:05;;;;;;;0.30;0.20;;;;;;;;;;5030633;28;20052;-82
2023/08/24 13:20:31;;;;;;;0.20;0.10;;;;;;;;;;5020263;28;20033;-82
2023/08/24 13:22:57;;;;;;;0.20;0.20;;;;;;;;;;5019106;28;20040;-82
2023/08/24 13:25:23;;;;;;;0.22;0.20;;;;;;;;;;5019704;28;20212;-82
2023/08/24 13:27:49;;;;;;;0.20;0.10;;;;;;;;;;5008796;28;20036;-82
2023/08/24 13:30:15;;;;;;;0.20;0.20;;;;;;;;;;5019338;28;20033;-82
2023/08/24 13:32:42;;;;;;;0.20;0.20;;;;;;;;;;5032206;28;20351;-82
2023/08/24 13:35:08;;;;;;;0.20;0.10;;;;;;;;;;5049227;28;20497;-82
2023/08/24 13:37:34;;;;;;;0.65;0.22;;;;;;;;;;5036459;28;20499;-82
2023/08/24 13:40:00;;;;;;;0.20;0.10;;;;;;;;;;5027139;28;20264;-82
2023/08/24 13:42:26;;;;;;;0.20;0.10;;;;;;;;;;5028699;28;20415;-82
2023/08/24 13:44:52;;;;;;;0.20;0.10;;;;;;;;;;5022248;28;20411;-82
2023/08/24 13:47:21;;;;;;;0.22;0.13;;;;;;;;;;5019933;28;20355;-83
2023/08/24 13:49:47;;;;;;;0.20;0.10;;;;;;;;;;5017961;28;20033;-83
2023/08/24 13:52:13;;;;;;;0.20;0.10;;;;;;;;;;5036458;28;20066;-82
2023/08/24 13:54:39;;;;;;;0.20;0.10;;;;;;;;;;5021170;28;20036;-81
2023/08/24 13:57:05;;;;;;;0.20;0.17;;;;;;;;;;5018793;28;20412;-83
2023/08/24 13:59:32;;;;;;;0.20;0.20;;;;;;;;;;5023930;28;20515;-81
2023/08/24 14:01:58;;;;;;;0.20;0.20;;;;;;;;;;5022964;28;20059;-82
2023/08/24 14:04:24;;;;;;;0.30;0.20;;;;;;;;;;5024778;28;20829;-82
2023/08/24 14:06:50;;;;;;;0.28;0.17;;;;;;;;;;5031520;28;20052;-81
2023/08/24 14:09:16;;;;;;;0.20;0.10;;;;;;;;;;5029749;28;20044;-81
2023/08/24 14:11:43;;;;;;;1.08;0.47;;;;;;;;;;5033727;28;20086;-82
2023/08/24 14:14:09;;;;;;;0.20;0.20;;;;;;;;;;5007324;23;1130155;-79
2023/08/24 14:16:35;;;;;;;0.32;0.30;;;;;;;;;;5032897;28;20509;-78
2023/08/24 14:19:01;;;;;;;0.25;0.20;;;;;;;;;;5027471;28;20041;-78
2023/08/24 14:21:27;;;;;;;0.20;0.20;;;;;;;;;;5019502;28;20100;-78
2023/08/24 14:23:54;;;;;;;0.47;0.30;;;;;;;;;;5025279;28;20042;-79
2023/08/24 14:26:20;;;;;;;0.22;0.20;;;;;;;;;;5011951;28;20087;-79
2023/08/24 14:28:49;;;;;;;0.20;0.20;;;;;;;;;;5007705;28;20073;-78
2023/08/24 14:31:15;;;;;;;0.20;0.10;;;;;;;;;;5007241;28;20128;-78
2023/08/24 14:33:42;;;;;;;0.20;0.13;;;;;;;;;;5021539;28;20041;-79
2023/08/24 14:36:08;;;;;;;0.20;0.20;;;;;;;;;;5004238;28;20061;-79
2023/08/24 14:38:34;;;;;;;0.30;0.17;;;;;;;;;;5007421;28;20053;-79
2023/08/24 14:41:00;;;;;;;0.20;0.20;;;;;;;;;;5030543;28;20064;-79
2023/08/24 14:43:27;;;;;;;0.30;0.20;;;;;;;;;;5007962;28;20050;-78